Time;durP1;ratioP1;P1;durP2;ratioP2;P2;SDS_P1;SDS_P2;PMS_P1;PMS_P2;Temp;Humidity;BMP_temperature;BMP_pressure;BME280_temperature;BME280_humidity;BME280_pressure;Samples;Min_cycle;Max_cycle;Signal;HPM_P1;HPM_P2
2021/04/10 00:02:25;;;;;;;;;;;;;;;;;;5089651;28;19924;-67
2021/04/10 00:04:52;;;;;;;;;;;;;;;;;;5082830;28;20396;-67
2021/04/10 00:07:18;;;;;;;;;;;;;;;;;;5085555;28;19942;-67
2021/04/10 00:09:45;;;;;;;;;;;;;;;;;;5077151;28;19993;-67
2021/04/10 00:12:11;;;;;;;;;;;;;;;;;;5085713;28;19924;-67
2021/04/10 00:14:38;;;;;;;;;;;;;;;;;;5080073;28;19984;-67
2021/04/10 00:17:04;;;;;;;;;;;;;;;;;;5084177;28;19928;-67
2021/04/10 00:19:32;;;;;;;;;;;;;;;;;;5087254;28;20018;-68
2021/04/10 00:21:58;;;;;;;;;;;;;;;;;;5084466;28;19925;-67
2021/04/10 00:24:25;;;;;;;;;;;;;;;;;;5081482;28;20055;-67
2021/04/10 00:26:51;;;;;;;;;;;;;;;;;;5086862;28;20413;-68
2021/04/10 00:29:18;;;;;;;;;;;;;;;;;;5083428;28;20023;-67
2021/04/10 00:31:44;;;;;;;;;;;;;;;;;;5083410;28;19924;-67
2021/04/10 00:34:11;;;;;;;;;;;;;;;;;;5087771;28;20349;-67
2021/04/10 00:36:37;;;;;;;;;;;;;;;;;;5087679;28;19931;-67
2021/04/10 00:39:04;;;;;;;;;;;;;;;;;;5078416;28;19925;-67
2021/04/10 00:41:30;;;;;;;;;;;;;;;;;;5085978;28;20407;-67
2021/04/10 00:43:57;;;;;;;;;;;;;;;;;;5081597;28;19932;-67
2021/04/10 00:46:23;;;;;;;;;;;;;;;;;;5086108;28;19933;-68
2021/04/10 00:48:50;;;;;;;;;;;;;;;;;;5085418;28;19925;-67
2021/04/10 00:51:16;;;;;;;;;;;;;;;;;;5080843;28;19938;-67
2021/04/10 00:53:43;;;;;;;;;;;;;;;;;;5082325;28;20419;-67
2021/04/10 00:56:09;;;;;;;;;;;;;;;;;;5084897;28;19932;-67
2021/04/10 00:58:36;;;;;;;;;;;;;;;;;;5081100;28;20337;-67
2021/04/10 01:01:02;;;;;;;;;;;;;;;;;;5087405;28;20022;-67
2021/04/10 01:03:29;;;;;;;;;;;;;;;;;;5083013;28;20019;-67
2021/04/10 01:05:55;;;;;;;;;;;;;;;;;;5087860;28;20322;-67
2021/04/10 01:08:22;;;;;;;;;;;;;;;;;;5085676;28;19931;-67
2021/04/10 01:10:48;;;;;;;;;;;;;;;;;;5085147;28;20412;-67
2021/04/10 01:13:15;;;;;;;;;;;;;;;;;;5088372;28;19930;-67
2021/04/10 01:15:41;;;;;;;;;;;;;;;;;;5089518;28;20291;-67
2021/04/10 01:18:08;;;;;;;;;;;;;;;;;;5085940;28;19925;-67
2021/04/10 01:20:34;;;;;;;;;;;;;;;;;;5082733;28;20019;-67
2021/04/10 01:23:01;;;;;;;;;;;;;;;;;;5091750;28;19924;-67
2021/04/10 01:25:27;;;;;;;;;;;;;;;;;;5081304;28;19924;-67
2021/04/10 01:27:54;;;;;;;;;;;;;;;;;;5085035;28;19928;-67
2021/04/10 01:30:20;;;;;;;;;;;;;;;;;;5087301;28;19928;-67
2021/04/10 01:32:47;;;;;;;;;;;;;;;;;;5090250;28;19930;-67
2021/04/10 01:35:13;;;;;;;;;;;;;;;;;;5085941;28;20388;-67
2021/04/10 01:37:40;;;;;;;;;;;;;;;;;;5089058;28;19934;-67
2021/04/10 01:40:06;;;;;;;;;;;;;;;;;;5082387;28;19924;-67
2021/04/10 01:42:33;;;;;;;;;;;;;;;;;;5092573;28;20019;-67
2021/04/10 01:44:59;;;;;;;;;;;;;;;;;;5088566;28;19932;-67
2021/04/10 01:47:25;;;;;;;;;;;;;;;;;;5089014;28;19924;-67
2021/04/10 01:49:52;;;;;;;;;;;;;;;;;;5085851;28;19938;-67
2021/04/10 01:52:18;;;;;;;;;;;;;;;;;;5088499;28;20528;-67
2021/04/10 01:54:45;;;;;;;;;;;;;;;;;;5087624;28;19930;-67
2021/04/10 01:57:11;;;;;;;;;;;;;;;;;;5089006;28;19950;-67
2021/04/10 01:59:38;;;;;;;;;;;;;;;;;;5082465;28;19924;-67
2021/04/10 02:02:04;;;;;;;;;;;;;;;;;;5082506;28;20022;-67
2021/04/10 02:04:31;;;;;;;;;;;;;;;;;;5081864;28;19924;-67
2021/04/10 02:06:57;;;;;;;;;;;;;;;;;;5085423;28;19924;-67
2021/04/10 02:09:24;;;;;;;;;;;;;;;;;;5085953;28;19931;-67
2021/04/10 02:11:50;;;;;;;;;;;;;;;;;;5086663;28;19930;-67
2021/04/10 02:14:17;;;;;;;;;;;;;;;;;;5084090;28;19928;-66
2021/04/10 02:16:43;;;;;;;;;;;;;;;;;;5088838;28;19940;-66
2021/04/10 02:19:10;;;;;;;;;;;;;;;;;;5084372;28;19928;-67
2021/04/10 02:21:38;;;;;;;;;;;;;;;;;;5086782;28;19925;-67
2021/04/10 02:24:05;;;;;;;;;;;;;;;;;;5083752;28;19969;-66
2021/04/10 02:26:31;;;;;;;;;;;;;;;;;;5088494;28;20337;-66
2021/04/10 02:28:57;;;;;;;;;;;;;;;;;;5083781;28;20005;-68
2021/04/10 02:31:24;;;;;;;;;;;;;;;;;;5074828;28;19993;-67
2021/04/10 02:33:50;;;;;;;;;;;;;;;;;;5085669;28;19976;-67
2021/04/10 02:36:17;;;;;;;;;;;;;;;;;;5088005;28;19928;-66
2021/04/10 02:38:43;;;;;;;;;;;;;;;;;;5083935;28;20044;-67
2021/04/10 02:41:10;;;;;;;;;;;;;;;;;;5084108;28;19931;-66
2021/04/10 02:43:36;;;;;;;;;;;;;;;;;;5090279;28;19930;-66
2021/04/10 02:46:03;;;;;;;;;;;;;;;;;;5085310;28;19924;-66
2021/04/10 02:48:29;;;;;;;;;;;;;;;;;;5083480;28;19928;-66
2021/04/10 02:50:56;;;;;;;;;;;;;;;;;;5086967;28;19951;-66
2021/04/10 02:53:22;;;;;;;;;;;;;;;;;;5088003;28;19928;-66
2021/04/10 02:55:49;;;;;;;;;;;;;;;;;;5085209;28;20412;-66
2021/04/10 02:58:15;;;;;;;;;;;;;;;;;;5086461;28;19978;-66
2021/04/10 03:00:42;;;;;;;;;;;;;;;;;;5090887;28;20548;-66
2021/04/10 03:03:08;;;;;;;;;;;;;;;;;;5087196;28;20001;-66
2021/04/10 03:05:35;;;;;;;;;;;;;;;;;;5088674;28;19992;-66
2021/04/10 03:08:01;;;;;;;;;;;;;;;;;;5086014;28;20047;-66
2021/04/10 03:10:28;;;;;;;;;;;;;;;;;;5082561;28;19928;-66
2021/04/10 03:12:55;;;;;;;;;;;;;;;;;;5086610;28;20350;-66
2021/04/10 03:15:22;;;;;;;;;;;;;;;;;;5088841;28;19964;-66
2021/04/10 03:17:48;;;;;;;;;;;;;;;;;;5087290;28;19924;-66
2021/04/10 03:20:15;;;;;;;;;;;;;;;;;;5091301;28;19930;-66
2021/04/10 03:22:41;;;;;;;;;;;;;;;;;;5081947;28;19931;-66
2021/04/10 03:25:08;;;;;;;;;;;;;;;;;;5090330;28;20061;-66
2021/04/10 03:27:34;;;;;;;;;;;;;;;;;;5086729;28;19935;-66
2021/04/10 03:30:01;;;;;;;;;;;;;;;;;;5090685;28;19924;-66
2021/04/10 03:32:27;;;;;;;;;;;;;;;;;;5084438;28;20557;-69
2021/04/10 03:34:54;;;;;;;;;;;;;;;;;;5086101;28;19932;-66
2021/04/10 03:37:20;;;;;;;;;;;;;;;;;;5082852;28;19928;-66
2021/04/10 03:39:47;;;;;;;;;;;;;;;;;;5080841;28;19932;-66
2021/04/10 03:42:13;;;;;;;;;;;;;;;;;;5080890;28;19958;-66
2021/04/10 03:44:40;;;;;;;;;;;;;;;;;;5083792;28;20029;-66
2021/04/10 03:47:06;;;;;;;;;;;;;;;;;;5085037;28;19936;-66
2021/04/10 03:49:33;;;;;;;;;;;;;;;;;;5081707;28;20398;-66
2021/04/10 03:51:59;;;;;;;;;;;;;;;;;;5076478;28;20014;-66
2021/04/10 03:54:28;;;;;;;;;;;;;;;;;;5088230;28;20318;-66
2021/04/10 03:56:55;;;;;;;;;;;;;;;;;;5088061;28;19924;-66
2021/04/10 03:59:21;;;;;;;;;;;;;;;;;;5084151;28;19924;-66
2021/04/10 04:01:48;;;;;;;;;;;;;;;;;;5088584;28;19930;-66
2021/04/10 04:04:14;;;;;;;;;;;;;;;;;;5082483;28;19925;-66
2021/04/10 04:06:41;;;;;;;;;;;;;;;;;;5085028;28;20007;-66
2021/04/10 04:09:07;;;;;;;;;;;;;;;;;;5077631;28;19940;-66
2021/04/10 04:11:34;;;;;;;;;;;;;;;;;;5085884;28;19924;-66
2021/04/10 04:14:00;;;;;;;;;;;;;;;;;;5090609;28;20404;-66
2021/04/10 04:16:27;;;;;;;;;;;;;;;;;;5083198;28;19931;-67
2021/04/10 04:18:53;;;;;;;;;;;;;;;;;;5082604;28;19962;-66
2021/04/10 04:21:20;;;;;;;;;;;;;;;;;;5084111;28;19928;-67
2021/04/10 04:23:46;;;;;;;;;;;;;;;;;;5078273;28;19924;-66
2021/04/10 04:26:13;;;;;;;;;;;;;;;;;;5083599;28;19928;-67
2021/04/10 04:28:39;;;;;;;;;;;;;;;;;;5086723;28;19932;-66
2021/04/10 04:31:06;;;;;;;;;;;;;;;;;;5085687;28;19924;-67
2021/04/10 04:33:32;;;;;;;;;;;;;;;;;;5079451;28;19932;-68
2021/04/10 04:35:59;;;;;;;;;;;;;;;;;;5089980;28;19924;-66
2021/04/10 04:38:25;;;;;;;;;;;;;;;;;;5081691;28;19974;-67
2021/04/10 04:40:52;;;;;;;;;;;;;;;;;;5089236;28;20014;-67
2021/04/10 04:43:18;;;;;;;;;;;;;;;;;;5086101;28;20378;-67
2021/04/10 04:45:45;;;;;;;;;;;;;;;;;;5087801;28;19962;-66
2021/04/10 04:48:11;;;;;;;;;;;;;;;;;;5082256;28;20031;-69
2021/04/10 04:50:38;;;;;;;;;;;;;;;;;;5087847;28;19924;-67
2021/04/10 04:53:07;;;;;;;;;;;;;;;;;;5085861;28;20024;-66
2021/04/10 04:55:33;;;;;;;;;;;;;;;;;;5082383;28;20003;-66
2021/04/10 04:58:00;;;;;;;;;;;;;;;;;;5089360;28;20388;-69
2021/04/10 05:00:26;;;;;;;;;;;;;;;;;;5089672;28;19932;-68
2021/04/10 05:02:54;;;;;;;;;;;;;;;;;;5088627;28;20507;-66
2021/04/10 05:05:20;;;;;;;;;;;;;;;;;;5084927;28;20376;-66
2021/04/10 05:07:47;;;;;;;;;;;;;;;;;;5085735;28;19927;-67
2021/04/10 05:10:13;;;;;;;;;;;;;;;;;;5090231;28;20299;-67
2021/04/10 05:12:40;;;;;;;;;;;;;;;;;;5082841;28;19951;-67
2021/04/10 05:15:06;;;;;;;;;;;;;;;;;;5083708;28;19938;-67
2021/04/10 05:17:33;;;;;;;;;;;;;;;;;;5089486;28;19936;-67
2021/04/10 05:19:59;;;;;;;;;;;;;;;;;;5087514;28;19950;-67
2021/04/10 05:22:26;;;;;;;;;;;;;;;;;;5083330;28;19931;-67
2021/04/10 05:24:52;;;;;;;;;;;;;;;;;;5087321;28;20010;-69
2021/04/10 05:27:19;;;;;;;;;;;;;;;;;;5091340;28;19930;-68
2021/04/10 05:29:45;;;;;;;;;;;;;;;;;;5086118;28;19924;-67
2021/04/10 05:32:12;;;;;;;;;;;;;;;;;;5082517;28;20372;-69
2021/04/10 05:34:40;;;;;;;;;;;;;;;;;;5087369;28;19929;-68
2021/04/10 05:37:06;;;;;;;;;;;;;;;;;;5086015;28;20011;-67
2021/04/10 05:39:33;;;;;;;;;;;;;;;;;;5090583;28;19946;-67
2021/04/10 05:41:59;;;;;;;;;;;;;;;;;;5082512;28;20007;-67
2021/04/10 05:44:26;;;;;;;;;;;;;;;;;;5086984;28;19924;-68
2021/04/10 05:46:52;;;;;;;;;;;;;;;;;;5080250;28;19925;-67
2021/04/10 05:49:19;;;;;;;;;;;;;;;;;;5086170;28;20015;-67
2021/04/10 05:51:45;;;;;;;;;;;;;;;;;;5080379;28;19930;-68
2021/04/10 05:54:12;;;;;;;;;;;;;;;;;;5084980;28;19928;-67
2021/04/10 05:56:38;;;;;;;;;;;;;;;;;;5087798;28;19924;-67
2021/04/10 05:59:05;;;;;;;;;;;;;;;;;;5091471;28;19977;-68
2021/04/10 06:01:31;;;;;;;;;;;;;;;;;;5089935;28;19990;-68
2021/04/10 06:03:58;;;;;;;;;;;;;;;;;;5087115;28;20002;-71
2021/04/10 06:06:24;;;;;;;;;;;;;;;;;;5082270;28;19928;-71
2021/04/10 06:08:51;;;;;;;;;;;;;;;;;;5089011;28;20287;-68
2021/04/10 06:11:22;;;;;;;;;;;;;;;;;;5086488;28;19924;-69
2021/04/10 06:13:49;;;;;;;;;;;;;;;;;;5085553;28;19924;-68
2021/04/10 06:16:15;;;;;;;;;;;;;;;;;;5090968;28;19924;-68
2021/04/10 06:18:42;;;;;;;;;;;;;;;;;;5084315;28;19924;-70
2021/04/10 06:21:08;;;;;;;;;;;;;;;;;;5086742;28;19935;-68
2021/04/10 06:23:35;;;;;;;;;;;;;;;;;;5080331;28;20324;-68
2021/04/10 06:26:01;;;;;;;;;;;;;;;;;;5084226;28;20007;-67
2021/04/10 06:28:28;;;;;;;;;;;;;;;;;;5090512;28;20268;-67
2021/04/10 06:30:54;;;;;;;;;;;;;;;;;;5088371;28;19986;-68
2021/04/10 06:33:25;;;;;;;;;;;;;;;;;;5090347;28;20038;-68
2021/04/10 06:35:51;;;;;;;;;;;;;;;;;;5088655;28;19925;-67
2021/04/10 06:38:18;;;;;;;;;;;;;;;;;;5086538;28;19924;-68
2021/04/10 06:40:44;;;;;;;;;;;;;;;;;;5086538;28;20362;-68
2021/04/10 06:43:11;;;;;;;;;;;;;;;;;;5089632;28;19936;-68
2021/04/10 06:45:37;;;;;;;;;;;;;;;;;;5083835;28;20042;-68
2021/04/10 06:48:04;;;;;;;;;;;;;;;;;;5087578;28;20394;-68
2021/04/10 06:50:30;;;;;;;;;;;;;;;;;;5084056;28;19924;-68
2021/04/10 06:52:57;;;;;;;;;;;;;;;;;;5082159;28;19949;-67
2021/04/10 06:55:23;;;;;;;;;;;;;;;;;;5087873;28;19928;-68
2021/04/10 06:57:50;;;;;;;;;;;;;;;;;;5076827;28;20315;-68
2021/04/10 07:00:16;;;;;;;;;;;;;;;;;;5088427;28;19924;-66
2021/04/10 07:02:43;;;;;;;;;;;;;;;;;;5084793;28;19933;-65
2021/04/10 07:05:09;;;;;;;;;;;;;;;;;;5081124;28;20413;-66
2021/04/10 07:07:36;;;;;;;;;;;;;;;;;;5081896;28;19932;-66
2021/04/10 07:10:03;;;;;;;;;;;;;;;;;;5081168;28;19969;-68
2021/04/10 07:12:30;;;;;;;;;;;;;;;;;;5079250;28;19928;-65
2021/04/10 07:14:56;;;;;;;;;;;;;;;;;;5083510;28;19930;-65
2021/04/10 07:17:23;;;;;;;;;;;;;;;;;;5086662;28;19932;-66
2021/04/10 07:19:49;;;;;;;;;;;;;;;;;;5086657;28;19928;-66
2021/04/10 07:22:16;;;;;;;;;;;;;;;;;;5087604;28;20390;-66
2021/04/10 07:24:42;;;;;;;;;;;;;;;;;;5083666;28;19930;-66
2021/04/10 07:27:09;;;;;;;;;;;;;;;;;;5085481;28;20308;-66
2021/04/10 07:29:35;;;;;;;;;;;;;;;;;;5084526;28;19924;-66
2021/04/10 07:32:02;;;;;;;;;;;;;;;;;;5080832;28;20356;-66
2021/04/10 07:34:28;;;;;;;;;;;;;;;;;;5077693;28;20371;-66
2021/04/10 07:36:55;;;;;;;;;;;;;;;;;;5088057;28;20387;-66
2021/04/10 07:39:21;;;;;;;;;;;;;;;;;;5083693;28;19924;-66
2021/04/10 07:41:48;;;;;;;;;;;;;;;;;;5083789;28;19934;-66
2021/04/10 07:44:14;;;;;;;;;;;;;;;;;;5077349;28;19924;-66
2021/04/10 07:46:41;;;;;;;;;;;;;;;;;;5086643;28;20472;-66
2021/04/10 07:49:07;;;;;;;;;;;;;;;;;;5082408;28;20089;-67
2021/04/10 07:51:34;;;;;;;;;;;;;;;;;;5081081;28;19950;-66
2021/04/10 07:54:01;;;;;;;;;;;;;;;;;;5083921;28;19924;-67
2021/04/10 07:56:27;;;;;;;;;;;;;;;;;;5084639;28;19924;-67
2021/04/10 07:58:54;;;;;;;;;;;;;;;;;;5077384;28;19930;-67
2021/04/10 08:01:20;;;;;;;;;;;;;;;;;;5075366;28;20007;-66
2021/04/10 08:03:48;;;;;;;;;;;;;;;;;;5078746;28;20294;-66
2021/04/10 08:06:14;;;;;;;;;;;;;;;;;;5085237;28;19928;-66
2021/04/10 08:08:41;;;;;;;;;;;;;;;;;;5086121;28;19939;-66
2021/04/10 08:11:07;;;;;;;;;;;;;;;;;;5077331;28;19971;-66
2021/04/10 08:13:34;;;;;;;;;;;;;;;;;;5079583;28;20019;-66
2021/04/10 08:16:00;;;;;;;;;;;;;;;;;;5087917;28;20445;-66
2021/04/10 08:18:27;;;;;;;;;;;;;;;;;;5084311;28;19956;-66
2021/04/10 08:20:53;;;;;;;;;;;;;;;;;;5081522;28;20352;-66
2021/04/10 08:23:20;;;;;;;;;;;;;;;;;;5086698;28;20006;-66
2021/04/10 08:25:47;;;;;;;;;;;;;;;;;;5089579;28;19931;-66
2021/04/10 08:28:13;;;;;;;;;;;;;;;;;;5086706;28;19924;-66
2021/04/10 08:30:40;;;;;;;;;;;;;;;;;;5087280;28;19978;-66
2021/04/10 08:33:06;;;;;;;;;;;;;;;;;;5083606;28;20407;-66
2021/04/10 08:35:33;;;;;;;;;;;;;;;;;;5090003;28;19930;-66
2021/04/10 08:37:59;;;;;;;;;;;;;;;;;;5089222;28;19928;-67
2021/04/10 08:40:26;;;;;;;;;;;;;;;;;;5091455;28;19924;-67
2021/04/10 08:42:52;;;;;;;;;;;;;;;;;;5089657;28;19924;-66
2021/04/10 08:45:19;;;;;;;;;;;;;;;;;;5087133;28;20387;-66
2021/04/10 08:47:45;;;;;;;;;;;;;;;;;;5081659;28;19924;-67
2021/04/10 08:50:12;;;;;;;;;;;;;;;;;;5078875;28;20007;-66
2021/04/10 08:52:38;;;;;;;;;;;;;;;;;;5087376;28;20343;-66
2021/04/10 08:55:05;;;;;;;;;;;;;;;;;;5085887;28;20006;-66
2021/04/10 08:57:32;;;;;;;;;;;;;;;;;;5088863;28;19924;-66
2021/04/10 08:59:58;;;;;;;;;;;;;;;;;;5088444;28;20053;-66
2021/04/10 09:02:25;;;;;;;;;;;;;;;;;;5091778;28;20360;-67
2021/04/10 09:04:51;;;;;;;;;;;;;;;;;;5082911;28;19932;-67
2021/04/10 09:07:18;;;;;;;;;;;;;;;;;;5089138;28;19931;-67
2021/04/10 09:09:44;;;;;;;;;;;;;;;;;;5085800;28;20418;-67
2021/04/10 09:12:11;;;;;;;;;;;;;;;;;;5084665;28;19924;-67
2021/04/10 09:14:37;;;;;;;;;;;;;;;;;;5084001;28;19962;-66
2021/04/10 09:17:04;;;;;;;;;;;;;;;;;;5091470;28;20352;-67
2021/04/10 09:19:30;;;;;;;;;;;;;;;;;;5086708;28;19924;-67
2021/04/10 09:21:57;;;;;;;;;;;;;;;;;;5082561;28;19931;-66
2021/04/10 09:24:23;;;;;;;;;;;;;;;;;;5084260;28;20432;-67
2021/04/10 09:26:50;;;;;;;;;;;;;;;;;;5081434;28;19928;-67
2021/04/10 09:29:17;;;;;;;;;;;;;;;;;;5082264;28;19930;-66
2021/04/10 09:31:44;;;;;;;;;;;;;;;;;;5076613;28;19928;-67
2021/04/10 09:34:11;;;;;;;;;;;;;;;;;;5082279;28;19925;-67
2021/04/10 09:36:37;;;;;;;;;;;;;;;;;;5079482;28;20079;-67
2021/04/10 09:39:04;;;;;;;;;;;;;;;;;;5090572;28;19965;-67
2021/04/10 09:41:30;;;;;;;;;;;;;;;;;;5091661;28;20016;-67
2021/04/10 09:43:57;;;;;;;;;;;;;;;;;;5087234;28;19924;-67
2021/04/10 09:46:23;;;;;;;;;;;;;;;;;;5082334;28;19940;-65
2021/04/10 09:48:50;;;;;;;;;;;;;;;;;;5086589;28;20012;-65
2021/04/10 09:51:17;;;;;;;;;;;;;;;;;;5082195;28;19987;-65
2021/04/10 09:53:43;;;;;;;;;;;;;;;;;;5083782;28;20282;-64
2021/04/10 09:56:10;;;;;;;;;;;;;;;;;;5086870;28;19964;-64
2021/04/10 09:58:36;;;;;;;;;;;;;;;;;;5084666;28;20022;-63
2021/04/10 10:01:03;;;;;;;;;;;;;;;;;;5082797;28;20010;-65
2021/04/10 10:03:29;;;;;;;;;;;;;;;;;;5090171;28;19938;-64
2021/04/10 10:05:56;;;;;;;;;;;;;;;;;;5081101;28;19929;-64
2021/04/10 10:08:23;;;;;;;;;;;;;;;;;;5081182;28;19931;-64
2021/04/10 10:10:51;;;;;;;;;;;;;;;;;;5079571;28;19934;-65
2021/04/10 10:13:17;;;;;;;;;;;;;;;;;;5101177;22;19933;-64
2021/04/10 10:15:44;;;;;;;;;;;;;;;;;;5081650;28;19932;-64
2021/04/10 10:18:10;;;;;;;;;;;;;;;;;;5086071;28;20417;-66
2021/04/10 10:20:37;;;;;;;;;;;;;;;;;;5079093;28;19924;-64
2021/04/10 10:23:03;;;;;;;;;;;;;;;;;;5081873;28;19968;-65
2021/04/10 10:25:30;;;;;;;;;;;;;;;;;;5084649;28;20422;-64
2021/04/10 10:27:57;;;;;;;;;;;;;;;;;;5084514;28;19929;-65
2021/04/10 10:30:24;;;;;;;;;;;;;;;;;;5083423;28;19932;-64
2021/04/10 10:32:50;;;;;;;;;;;;;;;;;;5081249;28;19924;-65
2021/04/10 10:35:17;;;;;;;;;;;;;;;;;;5084629;28;20024;-65
2021/04/10 10:37:43;;;;;;;;;;;;;;;;;;5081356;28;19924;-66
2021/04/10 10:40:10;;;;;;;;;;;;;;;;;;5083255;28;19935;-66
2021/04/10 10:42:36;;;;;;;;;;;;;;;;;;5084074;28;20003;-66
2021/04/10 10:45:03;;;;;;;;;;;;;;;;;;5083444;28;19978;-64
2021/04/10 10:47:29;;;;;;;;;;;;;;;;;;5082173;28;20446;-65
2021/04/10 10:49:56;;;;;;;;;;;;;;;;;;5083306;28;19977;-65
2021/04/10 10:52:22;;;;;;;;;;;;;;;;;;5084930;28;19950;-65
2021/04/10 10:54:50;;;;;;;;;;;;;;;;;;5082850;28;19979;-65
2021/04/10 10:57:16;;;;;;;;;;;;;;;;;;5082981;28;19924;-65
2021/04/10 10:59:43;;;;;;;;;;;;;;;;;;5083406;28;19932;-64
2021/04/10 11:02:09;;;;;;;;;;;;;;;;;;5086095;28;19939;-64
2021/04/10 11:04:36;;;;;;;;;;;;;;;;;;5077532;28;19925;-64
2021/04/10 11:07:02;;;;;;;;;;;;;;;;;;5085204;28;19932;-65
2021/04/10 11:09:29;;;;;;;;;;;;;;;;;;5083703;28;19924;-63
2021/04/10 11:11:55;;;;;;;;;;;;;;;;;;5082364;28;20349;-66
2021/04/10 11:14:22;;;;;;;;;;;;;;;;;;5081794;28;19932;-65
2021/04/10 11:16:48;;;;;;;;;;;;;;;;;;5087012;28;19932;-65
2021/04/10 11:19:15;;;;;;;;;;;;;;;;;;5095438;28;20308;-66
2021/04/10 11:21:41;;;;;;;;;;;;;;;;;;5085704;28;19971;-65
2021/04/10 11:24:08;;;;;;;;;;;;;;;;;;5085490;28;20037;-66
2021/04/10 11:26:34;;;;;;;;;;;;;;;;;;5086556;28;19924;-64
2021/04/10 11:29:01;;;;;;;;;;;;;;;;;;5086044;28;20012;-64
2021/04/10 11:31:27;;;;;;;;;;;;;;;;;;5090152;28;19945;-65
2021/04/10 11:33:54;;;;;;;;;;;;;;;;;;5084014;28;19978;-65
2021/04/10 11:36:20;;;;;;;;;;;;;;;;;;5080461;28;19970;-65
2021/04/10 11:38:47;;;;;;;;;;;;;;;;;;5091155;28;20493;-65
2021/04/10 11:41:13;;;;;;;;;;;;;;;;;;5082109;28;20018;-66
2021/04/10 11:43:40;;;;;;;;;;;;;;;;;;5081695;28;19931;-66
2021/04/10 11:46:06;;;;;;;;;;;;;;;;;;5082250;28;20018;-66
2021/04/10 11:48:33;;;;;;;;;;;;;;;;;;5082602;28;19943;-66
2021/04/10 11:51:00;;;;;;;;;;;;;;;;;;5080898;28;19928;-66
2021/04/10 11:53:27;;;;;;;;;;;;;;;;;;5082340;28;19935;-67
2021/04/10 11:55:53;;;;;;;;;;;;;;;;;;5084048;28;20375;-66
2021/04/10 11:58:20;;;;;;;;;;;;;;;;;;5082863;28;19929;-65
2021/04/10 12:00:46;;;;;;;;;;;;;;;;;;5085039;28;20336;-67
2021/04/10 12:03:14;;;;;;;;;;;;;;;;;;5084448;28;20010;-68
2021/04/10 12:05:40;;;;;;;;;;;;;;;;;;5081141;28;19932;-68
2021/04/10 12:08:07;;;;;;;;;;;;;;;;;;5084332;28;20363;-66
2021/04/10 12:10:33;;;;;;;;;;;;;;;;;;5079677;28;19959;-67
2021/04/10 12:13:00;;;;;;;;;;;;;;;;;;5084152;28;19985;-65
2021/04/10 12:15:26;;;;;;;;;;;;;;;;;;5083206;28;19970;-68
2021/04/10 12:17:53;;;;;;;;;;;;;;;;;;5081612;28;19928;-66
2021/04/10 12:20:19;;;;;;;;;;;;;;;;;;5082657;28;19929;-65
2021/04/10 12:22:46;;;;;;;;;;;;;;;;;;5086019;28;19924;-66
2021/04/10 12:25:12;;;;;;;;;;;;;;;;;;5085667;28;20359;-65
2021/04/10 12:27:39;;;;;;;;;;;;;;;;;;5085337;28;19970;-65
2021/04/10 12:30:06;;;;;;;;;;;;;;;;;;5085574;28;20058;-66
2021/04/10 12:32:33;;;;;;;;;;;;;;;;;;5078880;28;19970;-66
2021/04/10 12:34:59;;;;;;;;;;;;;;;;;;5088422;28;20035;-67
2021/04/10 12:37:26;;;;;;;;;;;;;;;;;;5085827;28;20312;-65
2021/04/10 12:39:52;;;;;;;;;;;;;;;;;;5082197;28;20334;-65
2021/04/10 12:42:19;;;;;;;;;;;;;;;;;;5081407;28;20408;-63
2021/04/10 12:44:45;;;;;;;;;;;;;;;;;;5081587;28;19980;-65
2021/04/10 12:47:12;;;;;;;;;;;;;;;;;;5083117;28;20010;-69
2021/04/10 12:49:38;;;;;;;;;;;;;;;;;;5084217;28;19935;-66
2021/04/10 12:52:05;;;;;;;;;;;;;;;;;;5082294;28;20014;-66
2021/04/10 12:54:31;;;;;;;;;;;;;;;;;;5084893;28;20057;-68
2021/04/10 12:56:58;;;;;;;;;;;;;;;;;;5082161;28;19924;-64
2021/04/10 12:59:25;;;;;;;;;;;;;;;;;;5087072;28;20027;-64
2021/04/10 13:01:51;;;;;;;;;;;;;;;;;;5081085;28;20018;-66
2021/04/10 13:04:18;;;;;;;;;;;;;;;;;;5084004;28;19928;-65
2021/04/10 13:06:44;;;;;;;;;;;;;;;;;;5081595;28;20015;-66
2021/04/10 13:09:11;;;;;;;;;;;;;;;;;;5081995;28;19954;-66
2021/04/10 13:11:37;;;;;;;;;;;;;;;;;;5087266;28;19942;-67
2021/04/10 13:14:04;;;;;;;;;;;;;;;;;;5088421;28;20100;-66
2021/04/10 13:16:30;;;;;;;;;;;;;;;;;;5085371;28;19936;-66
2021/04/10 13:18:57;;;;;;;;;;;;;;;;;;5089665;28;20018;-66
2021/04/10 13:21:23;;;;;;;;;;;;;;;;;;5085346;28;19924;-64
2021/04/10 13:23:50;;;;;;;;;;;;;;;;;;5081487;28;20379;-66
2021/04/10 13:26:16;;;;;;;;;;;;;;;;;;5087534;28;20006;-67
2021/04/10 13:28:43;;;;;;;;;;;;;;;;;;5085238;28;20519;-67
2021/04/10 13:31:09;;;;;;;;;;;;;;;;;;5089869;28;19970;-65
2021/04/10 13:33:36;;;;;;;;;;;;;;;;;;5091920;28;19931;-65
2021/04/10 13:36:02;;;;;;;;;;;;;;;;;;5093455;28;19924;-66
2021/04/10 13:38:29;;;;;;;;;;;;;;;;;;5093022;28;20018;-66
2021/04/10 13:40:56;;;;;;;;;;;;;;;;;;5089785;28;19959;-65
2021/04/10 13:43:22;;;;;;;;;;;;;;;;;;5086995;28;19925;-67
2021/04/10 13:45:49;;;;;;;;;;;;;;;;;;5084748;28;19983;-66
2021/04/10 13:48:15;;;;;;;;;;;;;;;;;;5088298;28;19963;-65
2021/04/10 13:50:42;;;;;;;;;;;;;;;;;;5088793;28;19931;-67
2021/04/10 13:53:08;;;;;;;;;;;;;;;;;;5079740;28;20007;-65
2021/04/10 13:55:35;;;;;;;;;;;;;;;;;;5087755;28;19924;-67
2021/04/10 13:58:01;;;;;;;;;;;;;;;;;;5087106;28;19967;-65
2021/04/10 14:00:28;;;;;;;;;;;;;;;;;;5089037;28;20011;-69
2021/04/10 14:02:54;;;;;;;;;;;;;;;;;;5089054;28;20384;-65
2021/04/10 14:05:21;;;;;;;;;;;;;;;;;;5088872;28;19924;-68
2021/04/10 14:07:48;;;;;;;;;;;;;;;;;;5084686;28;20631;-66
2021/04/10 14:10:14;;;;;;;;;;;;;;;;;;5086613;28;19963;-66
2021/04/10 14:12:41;;;;;;;;;;;;;;;;;;5082418;28;20011;-65
2021/04/10 14:15:07;;;;;;;;;;;;;;;;;;5088071;28;20033;-66
2021/04/10 14:17:34;;;;;;;;;;;;;;;;;;5086313;28;19931;-66
2021/04/10 14:20:00;;;;;;;;;;;;;;;;;;5083286;28;20463;-63
2021/04/10 14:22:30;;;;;;;;;;;;;;;;;;5080510;28;20014;-69
2021/04/10 14:24:57;;;;;;;;;;;;;;;;;;5086286;28;20334;-67
2021/04/10 14:27:23;;;;;;;;;;;;;;;;;;5081926;28;19924;-64
2021/04/10 14:29:50;;;;;;;;;;;;;;;;;;5081927;28;19928;-64
2021/04/10 14:32:19;;;;;;;;;;;;;;;;;;5083259;28;19973;-66
2021/04/10 14:34:46;;;;;;;;;;;;;;;;;;5086713;28;20395;-66
2021/04/10 14:37:12;;;;;;;;;;;;;;;;;;5083879;28;20362;-66
2021/04/10 14:39:39;;;;;;;;;;;;;;;;;;5084864;28;19971;-65
2021/04/10 14:42:05;;;;;;;;;;;;;;;;;;5082963;28;20012;-65
2021/04/10 14:44:32;;;;;;;;;;;;;;;;;;5084897;28;20019;-64
2021/04/10 14:46:58;;;;;;;;;;;;;;;;;;5078714;28;20010;-64
2021/04/10 14:49:25;;;;;;;;;;;;;;;;;;5080815;28;20015;-66
2021/04/10 14:51:52;;;;;;;;;;;;;;;;;;5080326;28;20344;-65
2021/04/10 14:54:18;;;;;;;;;;;;;;;;;;5083982;28;19981;-64
2021/04/10 14:56:45;;;;;;;;;;;;;;;;;;5088065;28;20020;-65
2021/04/10 14:59:11;;;;;;;;;;;;;;;;;;5089135;28;20247;-65
2021/04/10 15:01:38;;;;;;;;;;;;;;;;;;5080475;28;19932;-65
2021/04/10 15:04:04;;;;;;;;;;;;;;;;;;5081997;28;20380;-65
2021/04/10 15:06:31;;;;;;;;;;;;;;;;;;5084112;28;20015;-66
2021/04/10 15:08:58;;;;;;;;;;;;;;;;;;5083208;28;19978;-65
2021/04/10 15:11:25;;;;;;;;;;;;;;;;;;5084762;28;19985;-64
2021/04/10 15:13:51;;;;;;;;;;;;;;;;;;5077324;28;20019;-65
2021/04/10 15:16:18;;;;;;;;;;;;;;;;;;5085979;28;20023;-66
2021/04/10 15:18:44;;;;;;;;;;;;;;;;;;5080783;28;20007;-65
2021/04/10 15:21:11;;;;;;;;;;;;;;;;;;5086654;28;19971;-65
2021/04/10 15:23:37;;;;;;;;;;;;;;;;;;5087243;28;19946;-67
2021/04/10 15:26:05;;;;;;;;;;;;;;;;;;5083353;28;19930;-67
2021/04/10 15:28:33;;;;;;;;;;;;;;;;;;5085255;28;20567;-66
2021/04/10 15:31:03;;;;;;;;;;;;;;;;;;5089883;28;19928;-66
2021/04/10 15:33:30;;;;;;;;;;;;;;;;;;5087946;28;19931;-65
2021/04/10 15:35:56;;;;;;;;;;;;;;;;;;5083448;28;20178;-67
2021/04/10 15:38:23;;;;;;;;;;;;;;;;;;5088687;28;20015;-64
2021/04/10 15:40:49;;;;;;;;;;;;;;;;;;5084595;28;19935;-64
2021/04/10 15:43:16;;;;;;;;;;;;;;;;;;5084470;28;20010;-64
2021/04/10 15:45:42;;;;;;;;;;;;;;;;;;5083956;28;19924;-66
2021/04/10 15:48:12;;;;;;;;;;;;;;;;;;5079894;28;19928;-66
2021/04/10 15:50:38;;;;;;;;;;;;;;;;;;5080504;28;20283;-65
2021/04/10 15:53:05;;;;;;;;;;;;;;;;;;5083289;28;19982;-65
2021/04/10 15:55:31;;;;;;;;;;;;;;;;;;5081372;28;20161;-63
2021/04/10 15:57:58;;;;;;;;;;;;;;;;;;5081717;28;19979;-64
2021/04/10 16:00:25;;;;;;;;;;;;;;;;;;5083934;28;20012;-65
2021/04/10 16:02:51;;;;;;;;;;;;;;;;;;5078472;28;19924;-64
2021/04/10 16:05:18;;;;;;;;;;;;;;;;;;5079810;28;19924;-64
2021/04/10 16:07:44;;;;;;;;;;;;;;;;;;5080750;28;20288;-67
2021/04/10 16:10:11;;;;;;;;;;;;;;;;;;5081120;28;19930;-65
2021/04/10 16:12:37;;;;;;;;;;;;;;;;;;5098129;22;19959;-67
2021/04/10 16:15:04;;;;;;;;;;;;;;;;;;5067611;28;19940;-67
2021/04/10 16:17:30;;;;;;;;;;;;;;;;;;5070502;28;20031;-67
2021/04/10 16:19:57;;;;;;;;;;;;;;;;;;5059711;28;20400;-67
2021/04/10 16:22:23;;;;;;;;;;;;;;;;;;5063566;28;19964;-67
2021/04/10 16:24:50;;;;;;;;;;;;;;;;;;5046116;28;19979;-67
2021/04/10 16:27:16;;;;;;;;;;;;;;;;;;5042362;28;20019;-67
2021/04/10 16:29:43;;;;;;;;;;;;;;;;;;5044405;28;20016;-67
2021/04/10 16:32:09;;;;;;;;;;;;;;;;;;5042887;28;19970;-67
2021/04/10 16:34:36;;;;;;;;;;;;;;;;;;5041765;28;19928;-66
2021/04/10 16:37:04;;;;;;;;;;;;;;;;;;5041536;28;19967;-66
2021/04/10 16:39:30;;;;;;;;;;;;;;;;;;5045205;28;19925;-66
2021/04/10 16:41:57;;;;;;;;;;;;;;;;;;5037064;28;20027;-66